sensor_id;sensor_type;location;lat;lon;timestamp;P1;durP1;ratioP1;P2;durP2;ratioP2
35418;SDS011;21525;41.240;16.500;2023-05-10T00:00:08;19.30;;;13.45;;
35418;SDS011;21525;41.240;16.500;2023-05-10T00:02:38;20.10;;;13.55;;
35418;SDS011;21525;41.240;16.500;2023-05-10T00:05:04;18.17;;;13.45;;
35418;SDS011;21525;41.240;16.500;2023-05-10T00:07:30;18.42;;;13.43;;
35418;SDS011;21525;41.240;16.500;2023-05-10T00:09:56;17.33;;;13.60;;
35418;SDS011;21525;41.240;16.500;2023-05-10T00:12:22;20.75;;;14.13;;
35418;SDS011;21525;41.240;16.500;2023-05-10T00:14:48;17.77;;;13.70;;
35418;SDS011;21525;41.240;16.500;2023-05-10T00:17:13;17.67;;;13.73;;
35418;SDS011;21525;41.240;16.500;2023-05-10T00:19:39;19.98;;;14.90;;
35418;SDS011;21525;41.240;16.500;2023-05-10T00:22:08;18.08;;;13.32;;
35418;SDS011;21525;41.240;16.500;2023-05-10T00:26:59;18.58;;;14.13;;
35418;SDS011;21525;41.240;16.500;2023-05-10T00:29:26;19.58;;;13.18;;
35418;SDS011;21525;41.240;16.500;2023-05-10T00:31:53;21.27;;;13.63;;
35418;SDS011;21525;41.240;16.500;2023-05-10T00:34:19;29.58;;;25.17;;
35418;SDS011;21525;41.240;16.500;2023-05-10T00:36:44;21.95;;;15.27;;
35418;SDS011;21525;41.240;16.500;2023-05-10T00:39:10;20.27;;;14.18;;
35418;SDS011;21525;41.240;16.500;2023-05-10T00:41:37;29.02;;;17.42;;
35418;SDS011;21525;41.240;16.500;2023-05-10T00:44:05;17.00;;;12.77;;
35418;SDS011;21525;41.240;16.500;2023-05-10T00:46:31;18.42;;;13.07;;
35418;SDS011;21525;41.240;16.500;2023-05-10T00:48:57;17.55;;;12.85;;
35418;SDS011;21525;41.240;16.500;2023-05-10T00:51:23;18.17;;;13.38;;
35418;SDS011;21525;41.240;16.500;2023-05-10T00:53:49;19.35;;;13.15;;
35418;SDS011;21525;41.240;16.500;2023-05-10T00:56:16;17.15;;;14.00;;
35418;SDS011;21525;41.240;16.500;2023-05-10T00:58:42;18.83;;;12.98;;
35418;SDS011;21525;41.240;16.500;2023-05-10T01:01:08;16.98;;;13.20;;
35418;SDS011;21525;41.240;16.500;2023-05-10T01:03:35;18.77;;;13.60;;
35418;SDS011;21525;41.240;16.500;2023-05-10T01:06:02;18.20;;;13.43;;
35418;SDS011;21525;41.240;16.500;2023-05-10T01:08:28;20.58;;;14.73;;
35418;SDS011;21525;41.240;16.500;2023-05-10T01:10:54;24.83;;;15.57;;
35418;SDS011;21525;41.240;16.500;2023-05-10T01:13:36;22.63;;;15.93;;
35418;SDS011;21525;41.240;16.500;2023-05-10T01:16:04;21.05;;;16.20;;
35418;SDS011;21525;41.240;16.500;2023-05-10T01:18:35;21.10;;;15.70;;
35418;SDS011;21525;41.240;16.500;2023-05-10T01:24:12;21.17;;;14.88;;
35418;SDS011;21525;41.240;16.500;2023-05-10T01:40:26;22.50;;;15.90;;
35418;SDS011;21525;41.240;16.500;2023-05-10T01:42:56;52.95;;;37.05;;
35418;SDS011;21525;41.240;16.500;2023-05-10T01:45:41;77.28;;;47.85;;
35418;SDS011;21525;41.240;16.500;2023-05-10T01:48:16;46.63;;;31.55;;
35418;SDS011;21525;41.240;16.500;2023-05-10T01:50:45;35.65;;;24.35;;
35418;SDS011;21525;41.240;16.500;2023-05-10T01:53:13;23.73;;;17.55;;
35418;SDS011;21525;41.240;16.500;2023-05-10T01:55:47;21.48;;;16.48;;
35418;SDS011;21525;41.240;16.500;2023-05-10T01:58:18;19.05;;;14.35;;
35418;SDS011;21525;41.240;16.500;2023-05-10T02:00:48;19.35;;;14.98;;
35418;SDS011;21525;41.240;16.500;2023-05-10T02:03:18;19.02;;;15.00;;
35418;SDS011;21525;41.240;16.500;2023-05-10T02:05:48;17.73;;;13.82;;
35418;SDS011;21525;41.240;16.500;2023-05-10T02:08:15;17.90;;;13.68;;
35418;SDS011;21525;41.240;16.500;2023-05-10T02:10:43;20.13;;;14.43;;
35418;SDS011;21525;41.240;16.500;2023-05-10T02:13:11;17.20;;;14.18;;
35418;SDS011;21525;41.240;16.500;2023-05-10T02:15:40;18.85;;;14.63;;
35418;SDS011;21525;41.240;16.500;2023-05-10T02:18:07;21.05;;;13.27;;
35418;SDS011;21525;41.240;16.500;2023-05-10T02:20:36;19.08;;;13.63;;
35418;SDS011;21525;41.240;16.500;2023-05-10T02:23:03;21.55;;;13.85;;
35418;SDS011;21525;41.240;16.500;2023-05-10T02:25:30;20.92;;;13.80;;
35418;SDS011;21525;41.240;16.500;2023-05-10T02:27:57;21.35;;;16.23;;
35418;SDS011;21525;41.240;16.500;2023-05-10T02:30:25;19.38;;;14.25;;
35418;SDS011;21525;41.240;16.500;2023-05-10T02:32:52;20.35;;;15.05;;
35418;SDS011;21525;41.240;16.500;2023-05-10T02:35:18;20.13;;;14.80;;
35418;SDS011;21525;41.240;16.500;2023-05-10T02:37:45;18.25;;;15.27;;
35418;SDS011;21525;41.240;16.500;2023-05-10T02:40:13;18.27;;;14.07;;
35418;SDS011;21525;41.240;16.500;2023-05-10T02:42:41;18.10;;;13.35;;
35418;SDS011;21525;41.240;16.500;2023-05-10T02:45:11;21.70;;;14.70;;
35418;SDS011;21525;41.240;16.500;2023-05-10T02:47:38;21.65;;;14.32;;
35418;SDS011;21525;41.240;16.500;2023-05-10T02:50:04;22.15;;;13.18;;
35418;SDS011;21525;41.240;16.500;2023-05-10T02:52:36;22.60;;;14.30;;
35418;SDS011;21525;41.240;16.500;2023-05-10T02:55:05;22.42;;;13.40;;
35418;SDS011;21525;41.240;16.500;2023-05-10T02:57:34;19.00;;;14.35;;
35418;SDS011;21525;41.240;16.500;2023-05-10T03:00:07;19.15;;;14.13;;
35418;SDS011;21525;41.240;16.500;2023-05-10T03:02:33;20.67;;;14.57;;
35418;SDS011;21525;41.240;16.500;2023-05-10T03:04:59;22.90;;;15.57;;
35418;SDS011;21525;41.240;16.500;2023-05-10T03:07:25;22.85;;;14.10;;
35418;SDS011;21525;41.240;16.500;2023-05-10T03:09:51;19.13;;;14.13;;
35418;SDS011;21525;41.240;16.500;2023-05-10T03:17:47;24.02;;;15.25;;
35418;SDS011;21525;41.240;16.500;2023-05-10T03:20:43;21.65;;;14.80;;
35418;SDS011;21525;41.240;16.500;2023-05-10T03:25:58;18.27;;;14.32;;
35418;SDS011;21525;41.240;16.500;2023-05-10T03:28:25;19.13;;;12.73;;
35418;SDS011;21525;41.240;16.500;2023-05-10T03:30:55;20.10;;;12.90;;
35418;SDS011;21525;41.240;16.500;2023-05-10T03:33:22;19.42;;;13.80;;
35418;SDS011;21525;41.240;16.500;2023-05-10T03:35:48;20.02;;;13.82;;
35418;SDS011;21525;41.240;16.500;2023-05-10T03:38:15;21.13;;;13.73;;
35418;SDS011;21525;41.240;16.500;2023-05-10T03:40:41;30.70;;;13.77;;
35418;SDS011;21525;41.240;16.500;2023-05-10T03:43:07;20.70;;;13.82;;
35418;SDS011;21525;41.240;16.500;2023-05-10T03:45:33;23.92;;;14.45;;
35418;SDS011;21525;41.240;16.500;2023-05-10T03:47:58;20.15;;;14.02;;
35418;SDS011;21525;41.240;16.500;2023-05-10T03:50:24;21.85;;;15.00;;
35418;SDS011;21525;41.240;16.500;2023-05-10T03:52:51;22.33;;;14.77;;
35418;SDS011;21525;41.240;16.500;2023-05-10T03:55:17;18.73;;;14.10;;
35418;SDS011;21525;41.240;16.500;2023-05-10T03:57:43;19.98;;;13.88;;
35418;SDS011;21525;41.240;16.500;2023-05-10T04:00:09;19.38;;;14.45;;
35418;SDS011;21525;41.240;16.500;2023-05-10T04:02:41;22.25;;;13.93;;
35418;SDS011;21525;41.240;16.500;2023-05-10T04:05:11;28.77;;;19.85;;
35418;SDS011;21525;41.240;16.500;2023-05-10T04:07:37;18.77;;;13.60;;
35418;SDS011;21525;41.240;16.500;2023-05-10T04:10:03;23.30;;;12.38;;
35418;SDS011;21525;41.240;16.500;2023-05-10T04:12:29;23.08;;;12.77;;
35418;SDS011;21525;41.240;16.500;2023-05-10T04:14:54;16.63;;;12.52;;
35418;SDS011;21525;41.240;16.500;2023-05-10T04:17:20;23.95;;;12.90;;
35418;SDS011;21525;41.240;16.500;2023-05-10T04:19:46;21.15;;;15.05;;
35418;SDS011;21525;41.240;16.500;2023-05-10T04:22:12;18.40;;;14.05;;
35418;SDS011;21525;41.240;16.500;2023-05-10T04:24:37;23.70;;;13.45;;
35418;SDS011;21525;41.240;16.500;2023-05-10T04:27:03;22.23;;;12.65;;
35418;SDS011;21525;41.240;16.500;2023-05-10T04:29:29;20.70;;;11.77;;
35418;SDS011;21525;41.240;16.500;2023-05-10T04:31:55;19.92;;;12.32;;
35418;SDS011;21525;41.240;16.500;2023-05-10T04:34:21;15.93;;;11.10;;
35418;SDS011;21525;41.240;16.500;2023-05-10T04:36:47;18.35;;;11.68;;
35418;SDS011;21525;41.240;16.500;2023-05-10T04:39:13;16.60;;;11.15;;
35418;SDS011;21525;41.240;16.500;2023-05-10T04:41:39;19.20;;;11.68;;
35418;SDS011;21525;41.240;16.500;2023-05-10T04:44:05;16.98;;;11.18;;
35418;SDS011;21525;41.240;16.500;2023-05-10T04:46:31;16.17;;;10.85;;
35418;SDS011;21525;41.240;16.500;2023-05-10T04:48:57;15.57;;;10.77;;
35418;SDS011;21525;41.240;16.500;2023-05-10T04:51:23;15.82;;;11.30;;
35418;SDS011;21525;41.240;16.500;2023-05-10T04:53:49;17.75;;;11.40;;
35418;SDS011;21525;41.240;16.500;2023-05-10T04:56:14;19.08;;;11.73;;
35418;SDS011;21525;41.240;16.500;2023-05-10T04:58:41;19.92;;;11.77;;
35418;SDS011;21525;41.240;16.500;2023-05-10T05:01:07;20.20;;;13.02;;
35418;SDS011;21525;41.240;16.500;2023-05-10T05:03:33;18.42;;;12.93;;
35418;SDS011;21525;41.240;16.500;2023-05-10T05:05:59;20.85;;;14.40;;
35418;SDS011;21525;41.240;16.500;2023-05-10T05:08:25;19.73;;;15.48;;
35418;SDS011;21525;41.240;16.500;2023-05-10T05:10:51;17.48;;;13.98;;
35418;SDS011;21525;41.240;16.500;2023-05-10T05:13:17;22.58;;;15.68;;
35418;SDS011;21525;41.240;16.500;2023-05-10T05:15:43;22.90;;;15.85;;
35418;SDS011;21525;41.240;16.500;2023-05-10T05:18:08;21.98;;;16.38;;
35418;SDS011;21525;41.240;16.500;2023-05-10T05:20:34;22.08;;;14.68;;
35418;SDS011;21525;41.240;16.500;2023-05-10T05:23:00;23.42;;;15.05;;
35418;SDS011;21525;41.240;16.500;2023-05-10T05:25:26;25.65;;;15.48;;
35418;SDS011;21525;41.240;16.500;2023-05-10T05:27:52;19.88;;;14.18;;
35418;SDS011;21525;41.240;16.500;2023-05-10T05:30:18;18.95;;;13.05;;
35418;SDS011;21525;41.240;16.500;2023-05-10T05:32:43;21.30;;;13.07;;
35418;SDS011;21525;41.240;16.500;2023-05-10T05:35:09;17.55;;;12.52;;
35418;SDS011;21525;41.240;16.500;2023-05-10T05:37:36;19.70;;;13.55;;
35418;SDS011;21525;41.240;16.500;2023-05-10T05:40:02;18.10;;;12.57;;
35418;SDS011;21525;41.240;16.500;2023-05-10T05:42:28;20.83;;;13.77;;
35418;SDS011;21525;41.240;16.500;2023-05-10T05:44:54;17.90;;;13.52;;
35418;SDS011;21525;41.240;16.500;2023-05-10T05:47:20;22.73;;;15.90;;
35418;SDS011;21525;41.240;16.500;2023-05-10T05:49:46;27.83;;;17.70;;
35418;SDS011;21525;41.240;16.500;2023-05-10T05:52:12;25.38;;;18.58;;
35418;SDS011;21525;41.240;16.500;2023-05-10T05:54:38;28.08;;;17.67;;
35418;SDS011;21525;41.240;16.500;2023-05-10T05:57:04;28.85;;;18.83;;
35418;SDS011;21525;41.240;16.500;2023-05-10T05:59:30;26.55;;;17.63;;
35418;SDS011;21525;41.240;16.500;2023-05-10T06:01:56;24.33;;;17.52;;
35418;SDS011;21525;41.240;16.500;2023-05-10T06:04:22;23.30;;;18.35;;
35418;SDS011;21525;41.240;16.500;2023-05-10T06:06:48;23.33;;;17.20;;
35418;SDS011;21525;41.240;16.500;2023-05-10T06:09:13;22.10;;;17.58;;
35418;SDS011;21525;41.240;16.500;2023-05-10T06:11:39;26.15;;;18.40;;
35418;SDS011;21525;41.240;16.500;2023-05-10T06:14:05;29.92;;;18.75;;
35418;SDS011;21525;41.240;16.500;2023-05-10T06:16:36;25.30;;;18.02;;
35418;SDS011;21525;41.240;16.500;2023-05-10T06:19:02;25.65;;;17.65;;
35418;SDS011;21525;41.240;16.500;2023-05-10T06:21:28;23.30;;;17.90;;
35418;SDS011;21525;41.240;16.500;2023-05-10T06:23:53;25.02;;;17.98;;
35418;SDS011;21525;41.240;16.500;2023-05-10T06:26:19;28.88;;;17.67;;
35418;SDS011;21525;41.240;16.500;2023-05-10T06:28:46;23.90;;;17.15;;
35418;SDS011;21525;41.240;16.500;2023-05-10T06:31:11;25.45;;;16.95;;
35418;SDS011;21525;41.240;16.500;2023-05-10T06:33:37;22.25;;;15.88;;
35418;SDS011;21525;41.240;16.500;2023-05-10T06:36:03;22.67;;;15.27;;
35418;SDS011;21525;41.240;16.500;2023-05-10T06:38:29;20.20;;;15.00;;
35418;SDS011;21525;41.240;16.500;2023-05-10T06:40:55;17.85;;;14.50;;
35418;SDS011;21525;41.240;16.500;2023-05-10T06:43:20;17.23;;;13.50;;
35418;SDS011;21525;41.240;16.500;2023-05-10T06:45:47;16.58;;;13.40;;
35418;SDS011;21525;41.240;16.500;2023-05-10T06:48:13;21.67;;;13.48;;
35418;SDS011;21525;41.240;16.500;2023-05-10T06:50:39;22.83;;;14.23;;
35418;SDS011;21525;41.240;16.500;2023-05-10T06:53:04;20.48;;;14.40;;
35418;SDS011;21525;41.240;16.500;2023-05-10T06:55:30;19.85;;;13.32;;
35418;SDS011;21525;41.240;16.500;2023-05-10T06:57:56;19.70;;;13.00;;
35418;SDS011;21525;41.240;16.500;2023-05-10T07:00:22;22.50;;;15.75;;
35418;SDS011;21525;41.240;16.500;2023-05-10T07:02:47;23.98;;;15.27;;
35418;SDS011;21525;41.240;16.500;2023-05-10T07:05:13;23.45;;;16.95;;
35418;SDS011;21525;41.240;16.500;2023-05-10T07:07:40;23.23;;;16.67;;
35418;SDS011;21525;41.240;16.500;2023-05-10T07:10:06;23.83;;;17.13;;
35418;SDS011;21525;41.240;16.500;2023-05-10T07:12:33;22.33;;;15.63;;
35418;SDS011;21525;41.240;16.500;2023-05-10T07:14:58;22.60;;;15.18;;
35418;SDS011;21525;41.240;16.500;2023-05-10T07:17:24;26.48;;;16.20;;
35418;SDS011;21525;41.240;16.500;2023-05-10T07:19:50;19.55;;;14.27;;
35418;SDS011;21525;41.240;16.500;2023-05-10T07:22:16;19.50;;;14.25;;
35418;SDS011;21525;41.240;16.500;2023-05-10T07:24:42;18.40;;;13.75;;
35418;SDS011;21525;41.240;16.500;2023-05-10T07:27:08;17.63;;;12.30;;
35418;SDS011;21525;41.240;16.500;2023-05-10T07:29:34;19.65;;;13.18;;
35418;SDS011;21525;41.240;16.500;2023-05-10T07:32:00;21.15;;;13.00;;
35418;SDS011;21525;41.240;16.500;2023-05-10T07:34:26;18.52;;;12.85;;
35418;SDS011;21525;41.240;16.500;2023-05-10T07:36:52;23.02;;;12.32;;
35418;SDS011;21525;41.240;16.500;2023-05-10T07:39:18;18.48;;;12.80;;
35418;SDS011;21525;41.240;16.500;2023-05-10T07:41:45;27.48;;;13.57;;
35418;SDS011;21525;41.240;16.500;2023-05-10T07:44:11;20.27;;;12.82;;
35418;SDS011;21525;41.240;16.500;2023-05-10T07:46:37;20.17;;;13.10;;
35418;SDS011;21525;41.240;16.500;2023-05-10T07:49:03;18.60;;;13.80;;
35418;SDS011;21525;41.240;16.500;2023-05-10T07:51:29;21.90;;;13.27;;
35418;SDS011;21525;41.240;16.500;2023-05-10T07:53:55;20.13;;;14.02;;
35418;SDS011;21525;41.240;16.500;2023-05-10T07:56:24;17.77;;;13.95;;
35418;SDS011;21525;41.240;16.500;2023-05-10T07:59:03;20.73;;;14.40;;
35418;SDS011;21525;41.240;16.500;2023-05-10T08:01:30;20.40;;;14.07;;
35418;SDS011;21525;41.240;16.500;2023-05-10T08:03:59;22.80;;;15.00;;
35418;SDS011;21525;41.240;16.500;2023-05-10T08:06:25;22.08;;;15.30;;
35418;SDS011;21525;41.240;16.500;2023-05-10T08:08:53;19.48;;;15.00;;
35418;SDS011;21525;41.240;16.500;2023-05-10T08:11:19;22.73;;;15.13;;
35418;SDS011;21525;41.240;16.500;2023-05-10T08:13:46;21.67;;;15.93;;
35418;SDS011;21525;41.240;16.500;2023-05-10T08:16:12;26.67;;;18.83;;
35418;SDS011;21525;41.240;16.500;2023-05-10T08:18:39;30.83;;;21.27;;
35418;SDS011;21525;41.240;16.500;2023-05-10T08:21:06;27.85;;;19.88;;
35418;SDS011;21525;41.240;16.500;2023-05-10T08:23:32;26.40;;;19.08;;
35418;SDS011;21525;41.240;16.500;2023-05-10T08:25:58;25.88;;;18.55;;
35418;SDS011;21525;41.240;16.500;2023-05-10T08:28:24;27.05;;;19.10;;
35418;SDS011;21525;41.240;16.500;2023-05-10T08:30:50;27.63;;;19.90;;
35418;SDS011;21525;41.240;16.500;2023-05-10T08:33:17;26.83;;;20.92;;
35418;SDS011;21525;41.240;16.500;2023-05-10T08:35:44;24.63;;;19.73;;
35418;SDS011;21525;41.240;16.500;2023-05-10T08:38:10;28.42;;;18.83;;
35418;SDS011;21525;41.240;16.500;2023-05-10T08:40:42;28.83;;;18.83;;
35418;SDS011;21525;41.240;16.500;2023-05-10T08:43:13;24.65;;;17.73;;
35418;SDS011;21525;41.240;16.500;2023-05-10T08:45:42;24.10;;;18.80;;
35418;SDS011;21525;41.240;16.500;2023-05-10T08:48:10;25.08;;;17.83;;
35418;SDS011;21525;41.240;16.500;2023-05-10T08:50:36;27.33;;;16.70;;
35418;SDS011;21525;41.240;16.500;2023-05-10T08:53:04;23.63;;;16.05;;
35418;SDS011;21525;41.240;16.500;2023-05-10T08:55:32;26.67;;;15.90;;
35418;SDS011;21525;41.240;16.500;2023-05-10T08:58:02;21.40;;;14.93;;
35418;SDS011;21525;41.240;16.500;2023-05-10T09:00:28;21.50;;;14.68;;
35418;SDS011;21525;41.240;16.500;2023-05-10T09:02:55;21.30;;;14.15;;
35418;SDS011;21525;41.240;16.500;2023-05-10T09:05:22;18.30;;;12.23;;
35418;SDS011;21525;41.240;16.500;2023-05-10T09:07:47;16.92;;;12.75;;
35418;SDS011;21525;41.240;16.500;2023-05-10T09:10:13;19.88;;;11.50;;
35418;SDS011;21525;41.240;16.500;2023-05-10T09:12:40;16.50;;;11.88;;
35418;SDS011;21525;41.240;16.500;2023-05-10T09:15:07;12.80;;;9.80;;
35418;SDS011;21525;41.240;16.500;2023-05-10T09:17:35;13.30;;;9.48;;
35418;SDS011;21525;41.240;16.500;2023-05-10T09:20:03;14.73;;;10.32;;
35418;SDS011;21525;41.240;16.500;2023-05-10T09:22:30;14.48;;;9.57;;
35418;SDS011;21525;41.240;16.500;2023-05-10T09:25:12;14.20;;;9.75;;
35418;SDS011;21525;41.240;16.500;2023-05-10T09:27:39;15.15;;;10.25;;
35418;SDS011;21525;41.240;16.500;2023-05-10T09:30:07;16.65;;;10.57;;
35418;SDS011;21525;41.240;16.500;2023-05-10T09:32:40;16.05;;;10.57;;
35418;SDS011;21525;41.240;16.500;2023-05-10T09:35:10;14.23;;;9.85;;
35418;SDS011;21525;41.240;16.500;2023-05-10T09:37:38;14.55;;;10.23;;
35418;SDS011;21525;41.240;16.500;2023-05-10T09:40:13;13.98;;;8.80;;
35418;SDS011;21525;41.240;16.500;2023-05-10T09:42:41;12.48;;;8.32;;
35418;SDS011;21525;41.240;16.500;2023-05-10T09:45:08;11.65;;;7.60;;
35418;SDS011;21525;41.240;16.500;2023-05-10T09:47:34;11.90;;;7.40;;
35418;SDS011;21525;41.240;16.500;2023-05-10T09:50:01;13.10;;;7.40;;
35418;SDS011;21525;41.240;16.500;2023-05-10T09:53:14;11.63;;;7.75;;
35418;SDS011;21525;41.240;16.500;2023-05-10T09:55:20;11.57;;;7.68;;
35418;SDS011;21525;41.240;16.500;2023-05-10T09:57:47;12.05;;;7.68;;
35418;SDS011;21525;41.240;16.500;2023-05-10T10:00:18;11.82;;;7.63;;
35418;SDS011;21525;41.240;16.500;2023-05-10T10:02:53;11.55;;;7.32;;
35418;SDS011;21525;41.240;16.500;2023-05-10T10:05:21;10.90;;;7.25;;
35418;SDS011;21525;41.240;16.500;2023-05-10T10:07:52;9.98;;;7.10;;
35418;SDS011;21525;41.240;16.500;2023-05-10T10:10:18;14.68;;;7.45;;
35418;SDS011;21525;41.240;16.500;2023-05-10T10:12:44;11.90;;;6.43;;
35418;SDS011;21525;41.240;16.500;2023-05-10T10:15:10;10.00;;;7.03;;
35418;SDS011;21525;41.240;16.500;2023-05-10T10:17:36;12.07;;;6.25;;
35418;SDS011;21525;41.240;16.500;2023-05-10T10:20:03;13.73;;;6.63;;
35418;SDS011;21525;41.240;16.500;2023-05-10T10:22:29;8.60;;;6.45;;
35418;SDS011;21525;41.240;16.500;2023-05-10T10:24:55;9.02;;;6.22;;
35418;SDS011;21525;41.240;16.500;2023-05-10T10:27:28;12.15;;;6.93;;
35418;SDS011;21525;41.240;16.500;2023-05-10T10:35:20;9.17;;;6.60;;
35418;SDS011;21525;41.240;16.500;2023-05-10T10:37:47;11.48;;;6.95;;
35418;SDS011;21525;41.240;16.500;2023-05-10T10:40:26;13.00;;;7.40;;
35418;SDS011;21525;41.240;16.500;2023-05-10T10:42:53;12.90;;;7.22;;
35418;SDS011;21525;41.240;16.500;2023-05-10T10:45:19;13.65;;;8.20;;
35418;SDS011;21525;41.240;16.500;2023-05-10T10:47:46;13.95;;;7.57;;
35418;SDS011;21525;41.240;16.500;2023-05-10T10:50:12;11.15;;;7.80;;
35418;SDS011;21525;41.240;16.500;2023-05-10T10:52:38;11.48;;;8.13;;
35418;SDS011;21525;41.240;16.500;2023-05-10T10:57:51;11.88;;;8.05;;
35418;SDS011;21525;41.240;16.500;2023-05-10T11:00:30;12.02;;;8.90;;
35418;SDS011;21525;41.240;16.500;2023-05-10T11:03:08;12.45;;;9.60;;
35418;SDS011;21525;41.240;16.500;2023-05-10T11:05:44;13.50;;;9.00;;
35418;SDS011;21525;41.240;16.500;2023-05-10T11:13:45;13.43;;;9.60;;
35418;SDS011;21525;41.240;16.500;2023-05-10T11:16:21;14.60;;;10.52;;
35418;SDS011;21525;41.240;16.500;2023-05-10T11:19:02;16.57;;;10.23;;
35418;SDS011;21525;41.240;16.500;2023-05-10T11:21:30;14.95;;;10.32;;
35418;SDS011;21525;41.240;16.500;2023-05-10T11:23:58;14.05;;;10.73;;
35418;SDS011;21525;41.240;16.500;2023-05-10T11:26:29;16.80;;;10.52;;
35418;SDS011;21525;41.240;16.500;2023-05-10T11:28:57;18.52;;;12.10;;
35418;SDS011;21525;41.240;16.500;2023-05-10T11:31:25;15.60;;;10.35;;
35418;SDS011;21525;41.240;16.500;2023-05-10T11:33:53;15.68;;;10.60;;
35418;SDS011;21525;41.240;16.500;2023-05-10T11:36:21;19.13;;;11.40;;
35418;SDS011;21525;41.240;16.500;2023-05-10T11:38:49;14.73;;;10.18;;
35418;SDS011;21525;41.240;16.500;2023-05-10T11:41:15;14.88;;;9.75;;
35418;SDS011;21525;41.240;16.500;2023-05-10T11:43:43;27.48;;;10.52;;
35418;SDS011;21525;41.240;16.500;2023-05-10T11:46:11;18.38;;;11.00;;
35418;SDS011;21525;41.240;16.500;2023-05-10T11:48:38;15.48;;;9.73;;
35418;SDS011;21525;41.240;16.500;2023-05-10T11:51:05;14.32;;;9.05;;
35418;SDS011;21525;41.240;16.500;2023-05-10T11:53:32;13.20;;;8.55;;
35418;SDS011;21525;41.240;16.500;2023-05-10T11:58:34;15.50;;;9.60;;
35418;SDS011;21525;41.240;16.500;2023-05-10T12:01:00;18.70;;;8.88;;
35418;SDS011;21525;41.240;16.500;2023-05-10T12:03:27;18.77;;;10.70;;
35418;SDS011;21525;41.240;16.500;2023-05-10T12:05:53;12.30;;;9.35;;
35418;SDS011;21525;41.240;16.500;2023-05-10T12:08:21;14.48;;;8.90;;
35418;SDS011;21525;41.240;16.500;2023-05-10T12:10:48;13.15;;;8.20;;
35418;SDS011;21525;41.240;16.500;2023-05-10T12:13:14;13.55;;;8.80;;
35418;SDS011;21525;41.240;16.500;2023-05-10T12:15:41;13.75;;;8.85;;
35418;SDS011;21525;41.240;16.500;2023-05-10T12:18:13;13.27;;;8.68;;
35418;SDS011;21525;41.240;16.500;2023-05-10T12:20:40;14.32;;;8.40;;
35418;SDS011;21525;41.240;16.500;2023-05-10T12:23:07;16.33;;;8.30;;
35418;SDS011;21525;41.240;16.500;2023-05-10T12:28:05;23.65;;;9.35;;
35418;SDS011;21525;41.240;16.500;2023-05-10T12:30:33;18.42;;;8.93;;
35418;SDS011;21525;41.240;16.500;2023-05-10T12:33:10;25.38;;;10.30;;
35418;SDS011;21525;41.240;16.500;2023-05-10T12:35:50;17.80;;;9.07;;
35418;SDS011;21525;41.240;16.500;2023-05-10T12:38:28;26.15;;;8.98;;
35418;SDS011;21525;41.240;16.500;2023-05-10T12:41:05;19.10;;;9.32;;
35418;SDS011;21525;41.240;16.500;2023-05-10T12:43:32;21.45;;;9.65;;
35418;SDS011;21525;41.240;16.500;2023-05-10T12:48:36;19.10;;;9.60;;
35418;SDS011;21525;41.240;16.500;2023-05-10T12:51:03;21.30;;;9.07;;
35418;SDS011;21525;41.240;16.500;2023-05-10T12:53:34;23.00;;;9.82;;
35418;SDS011;21525;41.240;16.500;2023-05-10T12:56:00;21.52;;;10.50;;
35418;SDS011;21525;41.240;16.500;2023-05-10T12:58:26;21.10;;;9.68;;
35418;SDS011;21525;41.240;16.500;2023-05-10T13:00:52;22.60;;;10.18;;
35418;SDS011;21525;41.240;16.500;2023-05-10T13:03:18;27.10;;;11.27;;
35418;SDS011;21525;41.240;16.500;2023-05-10T13:05:44;24.23;;;9.27;;
35418;SDS011;21525;41.240;16.500;2023-05-10T13:08:10;21.60;;;10.60;;
35418;SDS011;21525;41.240;16.500;2023-05-10T13:10:36;23.98;;;9.27;;
35418;SDS011;21525;41.240;16.500;2023-05-10T13:13:01;23.85;;;10.45;;
35418;SDS011;21525;41.240;16.500;2023-05-10T13:15:27;27.90;;;10.13;;
35418;SDS011;21525;41.240;16.500;2023-05-10T13:17:54;28.80;;;10.98;;
35418;SDS011;21525;41.240;16.500;2023-05-10T13:20:20;25.58;;;10.70;;
35418;SDS011;21525;41.240;16.500;2023-05-10T13:22:46;22.77;;;11.27;;
35418;SDS011;21525;41.240;16.500;2023-05-10T13:25:11;29.10;;;10.90;;
35418;SDS011;21525;41.240;16.500;2023-05-10T13:27:40;20.17;;;9.85;;
35418;SDS011;21525;41.240;16.500;2023-05-10T13:30:07;20.92;;;10.10;;
35418;SDS011;21525;41.240;16.500;2023-05-10T13:32:33;28.13;;;10.73;;
35418;SDS011;21525;41.240;16.500;2023-05-10T13:34:59;25.05;;;10.23;;
35418;SDS011;21525;41.240;16.500;2023-05-10T13:37:25;26.00;;;9.65;;
35418;SDS011;21525;41.240;16.500;2023-05-10T13:39:51;30.27;;;9.70;;
35418;SDS011;21525;41.240;16.500;2023-05-10T13:42:17;29.80;;;10.75;;
35418;SDS011;21525;41.240;16.500;2023-05-10T13:44:43;32.30;;;10.70;;
35418;SDS011;21525;41.240;16.500;2023-05-10T13:47:09;29.30;;;10.77;;
35418;SDS011;21525;41.240;16.500;2023-05-10T13:49:35;27.42;;;10.38;;
35418;SDS011;21525;41.240;16.500;2023-05-10T13:52:01;26.02;;;10.05;;
35418;SDS011;21525;41.240;16.500;2023-05-10T13:54:34;24.52;;;11.73;;
35418;SDS011;21525;41.240;16.500;2023-05-10T13:57:01;19.55;;;10.57;;
35418;SDS011;21525;41.240;16.500;2023-05-10T13:59:27;20.80;;;10.57;;
35418;SDS011;21525;41.240;16.500;2023-05-10T14:01:54;24.38;;;8.90;;
35418;SDS011;21525;41.240;16.500;2023-05-10T14:04:20;19.75;;;9.20;;
35418;SDS011;21525;41.240;16.500;2023-05-10T14:06:46;21.42;;;9.20;;
35418;SDS011;21525;41.240;16.500;2023-05-10T14:09:11;22.88;;;9.82;;
35418;SDS011;21525;41.240;16.500;2023-05-10T14:11:38;18.75;;;9.38;;
35418;SDS011;21525;41.240;16.500;2023-05-10T14:14:11;17.67;;;8.93;;
35418;SDS011;21525;41.240;16.500;2023-05-10T14:16:38;21.50;;;10.05;;
35418;SDS011;21525;41.240;16.500;2023-05-10T14:19:07;18.08;;;9.02;;
35418;SDS011;21525;41.240;16.500;2023-05-10T14:21:32;21.60;;;9.70;;
35418;SDS011;21525;41.240;16.500;2023-05-10T14:23:59;17.38;;;8.82;;
35418;SDS011;21525;41.240;16.500;2023-05-10T14:26:25;30.42;;;11.02;;
35418;SDS011;21525;41.240;16.500;2023-05-10T14:28:51;19.20;;;9.77;;
35418;SDS011;21525;41.240;16.500;2023-05-10T14:31:17;19.83;;;9.95;;
35418;SDS011;21525;41.240;16.500;2023-05-10T14:33:46;20.38;;;9.55;;
35418;SDS011;21525;41.240;16.500;2023-05-10T14:36:12;20.20;;;9.68;;
35418;SDS011;21525;41.240;16.500;2023-05-10T14:38:39;17.77;;;8.93;;
35418;SDS011;21525;41.240;16.500;2023-05-10T14:41:05;22.13;;;10.02;;
35418;SDS011;21525;41.240;16.500;2023-05-10T14:43:30;19.05;;;9.65;;
35418;SDS011;21525;41.240;16.500;2023-05-10T14:45:56;23.38;;;9.90;;
35418;SDS011;21525;41.240;16.500;2023-05-10T14:48:22;28.45;;;11.10;;
35418;SDS011;21525;41.240;16.500;2023-05-10T14:50:48;27.98;;;11.65;;
35418;SDS011;21525;41.240;16.500;2023-05-10T14:53:15;23.42;;;11.10;;
35418;SDS011;21525;41.240;16.500;2023-05-10T14:55:41;23.75;;;10.55;;
35418;SDS011;21525;41.240;16.500;2023-05-10T14:58:06;48.67;;;25.30;;
35418;SDS011;21525;41.240;16.500;2023-05-10T15:00:32;19.38;;;10.70;;